createdAt,value
2022-11-24T00:00:52.927Z,12.57
2022-11-24T00:03:20.365Z,11.90
2022-11-24T00:05:47.741Z,11.47
2022-11-24T00:08:15.274Z,13.65
2022-11-24T00:10:42.539Z,12.25
2022-11-24T00:13:09.805Z,12.90
2022-11-24T00:15:37.016Z,14.20
2022-11-24T00:18:04.408Z,12.30
2022-11-24T00:20:31.646Z,12.75
2022-11-24T00:22:58.998Z,13.73
2022-11-24T00:25:26.231Z,13.30
2022-11-24T00:27:54.755Z,13.95
2022-11-24T00:30:21.996Z,12.53
2022-11-24T00:32:49.292Z,11.48
2022-11-24T00:35:16.582Z,13.52
2022-11-24T00:37:43.952Z,12.70
2022-11-24T00:40:11.600Z,12.85
2022-11-24T00:42:39.107Z,11.00
2022-11-24T00:45:13.490Z,12.02
2022-11-24T00:47:41.592Z,12.80
2022-11-24T00:50:09.208Z,12.15
2022-11-24T00:52:36.557Z,11.43
2022-11-24T00:55:04.009Z,13.03
2022-11-24T00:57:31.337Z,11.55
2022-11-24T00:59:58.584Z,12.00
2022-11-24T01:02:26.524Z,12.00
2022-11-24T01:04:53.816Z,11.90
2022-11-24T01:07:21.202Z,13.20
2022-11-24T01:09:48.500Z,10.75
2022-11-24T01:12:15.807Z,10.25
2022-11-24T01:14:43.100Z,9.23
2022-11-24T01:17:10.474Z,11.02
2022-11-24T01:19:37.680Z,11.37
2022-11-24T01:22:05.109Z,10.60
2022-11-24T01:24:32.623Z,10.10
2022-11-24T01:27:00.205Z,12.38
2022-11-24T01:29:27.474Z,14.05
2022-11-24T01:31:54.785Z,11.37
2022-11-24T01:34:22.124Z,12.45
2022-11-24T01:36:49.527Z,14.25
2022-11-24T01:39:16.786Z,13.35
2022-11-24T01:41:44.134Z,13.18
2022-11-24T01:44:40.889Z,13.20
2022-11-24T01:47:45.284Z,12.95
2022-11-24T01:50:14.470Z,15.35
2022-11-24T01:52:44.592Z,13.85
2022-11-24T01:55:15.542Z,15.05
2022-11-24T01:57:43.886Z,14.77
2022-11-24T02:00:12.492Z,13.05
2022-11-24T02:02:44.546Z,13.02
2022-11-24T02:05:17.790Z,13.18
2022-11-24T02:07:45.283Z,13.25
2022-11-24T02:10:13.789Z,13.67
2022-11-24T02:12:43.500Z,12.73
2022-11-24T02:15:11.980Z,13.90
2022-11-24T02:17:39.269Z,15.27
2022-11-24T02:20:08.453Z,18.13
2022-11-24T02:22:47.785Z,12.70
2022-11-24T02:25:27.089Z,14.00
2022-11-24T02:27:54.706Z,14.38
2022-11-24T02:30:22.045Z,14.73
2022-11-24T02:32:49.387Z,15.85
2022-11-24T02:35:17.279Z,14.23
2022-11-24T02:37:44.593Z,14.13
2022-11-24T02:40:14.551Z,12.52
2022-11-24T02:42:42.988Z,15.43
2022-11-24T02:45:10.426Z,15.93
2022-11-24T02:47:37.732Z,13.17
2022-11-24T02:50:05.370Z,13.65
2022-11-24T02:52:32.973Z,14.65
2022-11-24T02:55:00.259Z,14.15
2022-11-24T02:57:27.590Z,13.63
2022-11-24T02:59:54.873Z,11.83
2022-11-24T03:02:22.403Z,14.57
2022-11-24T03:04:49.756Z,13.00
2022-11-24T03:07:17.133Z,13.15
2022-11-24T03:09:44.462Z,12.18
2022-11-24T03:12:11.803Z,10.37
2022-11-24T03:14:39.039Z,13.15
2022-11-24T03:17:07.198Z,10.85
2022-11-24T03:19:34.509Z,10.68
2022-11-24T03:22:01.860Z,10.25
2022-11-24T03:24:29.109Z,11.17
2022-11-24T03:26:56.371Z,10.73
2022-11-24T03:29:23.666Z,9.05
2022-11-24T03:31:51.018Z,11.10
2022-11-24T03:34:18.281Z,9.82
2022-11-24T03:36:45.622Z,9.10
2022-11-24T03:39:12.921Z,8.80
2022-11-24T03:41:40.325Z,10.75
2022-11-24T03:44:07.629Z,9.45
2022-11-24T03:46:35.002Z,8.80
2022-11-24T03:49:02.240Z,8.90
2022-11-24T03:51:29.550Z,8.40
2022-11-24T03:53:56.802Z,10.20
2022-11-24T03:56:24.160Z,7.88
2022-11-24T03:58:51.407Z,8.60
2022-11-24T04:01:18.746Z,8.83
2022-11-24T04:03:46.030Z,7.78
2022-11-24T04:06:13.357Z,8.25
2022-11-24T04:08:40.623Z,9.27
2022-11-24T04:11:07.928Z,9.48
2022-11-24T04:13:35.187Z,9.20
2022-11-24T04:16:06.049Z,12.52
2022-11-24T04:18:33.423Z,11.40
2022-11-24T04:21:00.660Z,10.63
2022-11-24T04:23:28.767Z,9.68
2022-11-24T04:25:56.070Z,11.23
2022-11-24T04:28:23.418Z,10.85
2022-11-24T04:30:51.045Z,11.07
2022-11-24T04:33:18.474Z,10.20
2022-11-24T04:35:45.732Z,11.05
2022-11-24T04:38:13.146Z,9.50
2022-11-24T04:41:03.896Z,10.50
2022-11-24T04:43:35.172Z,10.35
2022-11-24T04:46:05.130Z,10.70
2022-11-24T04:48:32.490Z,10.48
2022-11-24T04:50:59.827Z,9.83
2022-11-24T04:53:27.079Z,16.02
2022-11-24T04:55:54.421Z,15.57
2022-11-24T04:58:21.712Z,16.63
2022-11-24T05:00:49.059Z,20.30
2022-11-24T05:03:16.351Z,20.50
2022-11-24T05:05:43.683Z,15.73
2022-11-24T05:08:10.912Z,18.10
2022-11-24T05:10:38.297Z,12.93
2022-11-24T05:13:08.316Z,13.85
2022-11-24T05:15:37.371Z,11.63
2022-11-24T05:18:12.500Z,15.18
2022-11-24T05:20:39.877Z,11.07
2022-11-24T05:23:08.143Z,10.30
2022-11-24T05:25:35.453Z,11.20
2022-11-24T05:28:04.083Z,11.80
2022-11-24T05:30:31.711Z,15.32
2022-11-24T05:32:58.992Z,13.70
2022-11-24T05:35:26.370Z,14.50
2022-11-24T05:37:53.664Z,12.85
2022-11-24T05:40:21.038Z,13.83
2022-11-24T05:42:48.460Z,12.55
2022-11-24T05:45:19.998Z,10.60
2022-11-24T05:47:47.801Z,11.77
2022-11-24T05:50:17.337Z,13.23
2022-11-24T05:52:44.654Z,15.40
2022-11-24T05:55:11.949Z,15.13
2022-11-24T05:57:39.468Z,13.32
2022-11-24T06:00:07.574Z,13.55
2022-11-24T06:02:39.786Z,14.00
2022-11-24T06:05:07.525Z,14.90
2022-11-24T06:07:34.978Z,11.55
2022-11-24T06:10:02.427Z,13.45
2022-11-24T06:12:29.747Z,14.60
2022-11-24T06:14:57.170Z,15.27
2022-11-24T06:17:24.641Z,30.97
2022-11-24T06:19:52.232Z,84.70
2022-11-24T06:22:19.933Z,157.23
2022-11-24T06:24:47.473Z,165.00
2022-11-24T06:27:14.989Z,114.45
2022-11-24T06:29:42.458Z,75.30
2022-11-24T06:32:09.858Z,52.70
2022-11-24T06:34:37.523Z,44.85
2022-11-24T06:37:04.938Z,41.15
2022-11-24T06:39:32.392Z,31.60
2022-11-24T06:41:59.756Z,37.87
2022-11-24T06:44:27.227Z,22.38
2022-11-24T06:46:54.663Z,22.05
2022-11-24T06:49:23.055Z,24.98
2022-11-24T06:51:51.140Z,20.08
2022-11-24T06:54:23.884Z,22.17
2022-11-24T06:56:56.858Z,14.02
2022-11-24T06:59:25.031Z,19.75
2022-11-24T07:01:55.370Z,13.30
2022-11-24T07:04:22.807Z,12.20
2022-11-24T07:06:50.142Z,14.57
2022-11-24T07:09:20.736Z,12.20
2022-11-24T07:11:48.346Z,10.63
2022-11-24T07:14:15.623Z,10.68
2022-11-24T07:16:43.213Z,16.00
2022-11-24T07:19:11.146Z,12.47
2022-11-24T07:21:38.517Z,11.82
2022-11-24T07:24:06.469Z,18.52
2022-11-24T07:26:40.428Z,13.75
2022-11-24T07:29:07.999Z,13.50
2022-11-24T07:31:38.156Z,12.63
2022-11-24T07:34:05.729Z,12.00
2022-11-24T07:36:32.976Z,12.15
2022-11-24T07:39:00.381Z,11.20
2022-11-24T07:41:28.347Z,12.77
2022-11-24T07:43:58.918Z,12.37
2022-11-24T07:46:26.801Z,11.13
2022-11-24T07:48:56.594Z,12.93
2022-11-24T07:51:27.378Z,8.70
2022-11-24T07:53:57.731Z,7.30
2022-11-24T07:56:25.423Z,5.63
2022-11-24T07:58:53.210Z,7.72
2022-11-24T08:01:27.267Z,6.25
2022-11-24T08:03:54.865Z,6.93
2022-11-24T08:06:25.404Z,6.47
2022-11-24T08:08:57.449Z,8.03
2022-11-24T08:11:26.034Z,6.95
2022-11-24T08:13:53.520Z,6.45
2022-11-24T08:16:21.356Z,7.80
2022-11-24T08:18:53.227Z,8.93
2022-11-24T08:21:21.096Z,7.03
2022-11-24T08:23:49.490Z,7.60
2022-11-24T08:26:19.082Z,9.25
2022-11-24T08:28:47.064Z,14.13
2022-11-24T08:31:16.299Z,14.60
2022-11-24T08:33:43.892Z,13.87
2022-11-24T08:36:15.836Z,12.15
2022-11-24T08:38:45.112Z,13.35
2022-11-24T08:41:16.983Z,10.40
2022-11-24T08:43:45.549Z,11.45
2022-11-24T08:46:17.372Z,9.13
2022-11-24T08:48:51.684Z,9.50
2022-11-24T08:51:24.671Z,11.25
2022-11-24T08:53:59.629Z,9.80
2022-11-24T08:56:30.816Z,8.85
2022-11-24T08:58:58.892Z,6.27
2022-11-24T09:01:26.606Z,7.28
2022-11-24T09:03:54.339Z,8.80
2022-11-24T09:06:23.873Z,9.13
2022-11-24T09:08:52.356Z,8.77
2022-11-24T09:11:19.936Z,9.80
2022-11-24T09:13:47.607Z,10.20
2022-11-24T09:16:17.619Z,9.25
2022-11-24T09:18:45.570Z,9.38
2022-11-24T09:21:18.682Z,13.35
2022-11-24T09:23:49.182Z,9.93
2022-11-24T09:26:24.790Z,11.82
2022-11-24T09:29:10.897Z,9.35
2022-11-24T09:31:43.994Z,8.45
2022-11-24T09:34:16.515Z,16.15
2022-11-24T09:36:43.987Z,12.70
2022-11-24T09:39:11.947Z,17.77
2022-11-24T09:41:45.298Z,9.57
2022-11-24T09:44:53.856Z,14.50
2022-11-24T09:47:43.829Z,12.73
2022-11-24T09:50:15.172Z,7.07
2022-11-24T09:52:49.241Z,7.05
2022-11-24T09:55:25.648Z,5.75
2022-11-24T09:57:58.393Z,7.05
2022-11-24T10:00:26.341Z,5.43
2022-11-24T10:02:54.062Z,5.27
2022-11-24T10:05:21.982Z,5.40
2022-11-24T10:08:37.652Z,5.18
2022-11-24T10:11:16.366Z,5.10
2022-11-24T10:14:06.260Z,4.95
2022-11-24T10:16:42.512Z,3.80
2022-11-24T10:19:45.395Z,6.50
2022-11-24T10:22:13.085Z,5.47
2022-11-24T10:25:25.185Z,6.70
2022-11-24T10:28:00.149Z,4.97
2022-11-24T10:30:27.818Z,4.67
2022-11-24T10:33:24.262Z,5.07
2022-11-24T10:36:10.791Z,6.03
2022-11-24T10:38:51.339Z,5.43
2022-11-24T10:41:26.842Z,5.68
2022-11-24T10:43:54.158Z,6.57
2022-11-24T10:46:27.107Z,5.75
2022-11-24T10:49:03.848Z,4.07
2022-11-24T10:51:41.746Z,4.18
2022-11-24T10:54:20.565Z,7.07
2022-11-24T10:56:57.060Z,5.47
2022-11-24T10:59:24.552Z,4.50
2022-11-24T11:01:53.249Z,5.03
2022-11-24T11:04:38.912Z,5.47
2022-11-24T11:07:10.762Z,5.35
2022-11-24T11:09:38.401Z,7.50
2022-11-24T11:12:42.050Z,6.60
2022-11-24T11:15:21.925Z,5.22
2022-11-24T11:17:50.753Z,5.78
2022-11-24T11:20:27.282Z,9.05
2022-11-24T11:22:56.193Z,10.30
2022-11-24T11:25:32.825Z,13.10
2022-11-24T11:28:25.611Z,13.85
2022-11-24T11:31:17.993Z,11.57
2022-11-24T11:34:04.722Z,13.10
2022-11-24T11:36:34.948Z,10.20
2022-11-24T11:39:03.873Z,10.57
2022-11-24T11:41:37.398Z,9.25
2022-11-24T11:44:13.902Z,11.60
2022-11-24T11:46:41.668Z,11.27
2022-11-24T11:49:12.027Z,8.97
2022-11-24T11:52:05.669Z,10.55
2022-11-24T11:55:05.545Z,8.98
2022-11-24T11:58:24.228Z,9.43
2022-11-24T12:01:33.596Z,12.52
2022-11-24T12:04:18.769Z,11.57
2022-11-24T12:07:16.489Z,10.65
2022-11-24T12:10:12.304Z,11.80
2022-11-24T12:12:54.969Z,13.82
2022-11-24T12:15:45.390Z,13.65
2022-11-24T12:18:56.406Z,14.53
2022-11-24T12:21:35.836Z,9.82
2022-11-24T12:24:39.308Z,11.80
2022-11-24T12:27:29.897Z,9.75
2022-11-24T12:30:18.363Z,10.80
2022-11-24T12:33:02.070Z,10.10
2022-11-24T12:36:11.320Z,8.98
2022-11-24T12:38:58.669Z,5.00
2022-11-24T12:41:42.760Z,6.45
2022-11-24T12:44:30.100Z,8.90
2022-11-24T12:47:03.886Z,8.30
2022-11-24T12:49:58.714Z,10.02
2022-11-24T12:52:30.082Z,8.55
2022-11-24T12:54:57.702Z,8.15
2022-11-24T12:57:48.221Z,8.02
2022-11-24T13:00:16.387Z,8.07
2022-11-24T13:02:47.126Z,10.27
2022-11-24T13:05:24.135Z,8.30
2022-11-24T13:08:00.191Z,9.07
2022-11-24T13:10:54.308Z,9.60
2022-11-24T13:13:17.159Z,9.40
2022-11-24T13:19:00.895Z,9.18
2022-11-24T13:21:30.910Z,9.25
2022-11-24T13:24:05.156Z,10.40
2022-11-24T13:26:41.496Z,7.20
2022-11-24T13:29:30.816Z,7.55
2022-11-24T13:32:01.247Z,13.27
2022-11-24T13:34:40.961Z,8.45
2022-11-24T13:37:26.296Z,9.35
2022-11-24T13:40:00.649Z,8.97
2022-11-24T13:42:42.993Z,11.10
2022-11-24T13:45:41.128Z,8.07
2022-11-24T13:48:46.963Z,8.85
2022-11-24T13:51:17.601Z,11.55
2022-11-24T13:53:45.955Z,18.37
2022-11-24T13:56:13.447Z,12.13
2022-11-24T13:58:51.453Z,13.55
2022-11-24T14:01:24.931Z,7.43
2022-11-24T14:04:36.251Z,8.27
2022-11-24T14:07:08.170Z,6.53
2022-11-24T14:09:46.718Z,6.80
2022-11-24T14:12:21.836Z,6.30
2022-11-24T14:14:50.487Z,6.03
2022-11-24T14:17:24.259Z,7.72
2022-11-24T14:19:53.048Z,6.40
2022-11-24T14:22:27.052Z,6.75
2022-11-24T14:24:56.487Z,7.78
2022-11-24T14:27:35.523Z,7.90
2022-11-24T14:30:25.081Z,9.93
2022-11-24T14:32:59.393Z,7.67
2022-11-24T14:35:30.579Z,6.72
2022-11-24T14:38:05.787Z,7.55
2022-11-24T14:40:45.291Z,7.00
2022-11-24T14:43:25.835Z,7.13
2022-11-24T14:46:18.039Z,7.87
2022-11-24T14:48:49.556Z,7.15
2022-11-24T14:51:33.930Z,6.15
2022-11-24T14:54:13.782Z,7.90
2022-11-24T14:56:41.227Z,14.20
2022-11-24T14:59:22.473Z,16.23
2022-11-24T15:01:49.869Z,15.80
2022-11-24T15:04:46.361Z,19.67
2022-11-24T15:07:27.810Z,17.65
2022-11-24T15:10:02.081Z,16.98
2022-11-24T15:12:40.011Z,17.97
2022-11-24T15:15:20.631Z,16.38
2022-11-24T15:17:58.140Z,19.50
2022-11-24T15:20:29.187Z,23.63
2022-11-24T15:23:27.641Z,25.83
2022-11-24T15:25:58.795Z,22.60
2022-11-24T15:28:26.340Z,21.63
2022-11-24T15:30:54.683Z,24.88
2022-11-24T15:33:22.691Z,23.88
2022-11-24T15:35:50.098Z,26.00
2022-11-24T15:38:17.677Z,27.00
2022-11-24T15:40:46.919Z,19.27
2022-11-24T15:43:32.114Z,19.70
2022-11-24T15:45:59.534Z,19.70
2022-11-24T15:48:26.962Z,21.92
2022-11-24T15:50:54.401Z,17.17
2022-11-24T15:53:26.143Z,21.75
2022-11-24T15:55:53.440Z,18.42
2022-11-24T15:58:20.691Z,26.50
2022-11-24T16:00:48.030Z,27.05
2022-11-24T16:03:45.901Z,31.63
2022-11-24T16:06:02.553Z,38.03
2022-11-24T16:08:29.973Z,42.40
2022-11-24T16:10:57.291Z,39.30
2022-11-24T16:13:24.547Z,35.03
2022-11-24T16:15:52.245Z,32.60
2022-11-24T16:18:19.649Z,31.77
2022-11-24T16:20:46.974Z,27.25
2022-11-24T16:23:14.222Z,29.10
2022-11-24T16:25:41.577Z,28.05
2022-11-24T16:28:08.976Z,23.80
2022-11-24T16:30:36.326Z,21.40
2022-11-24T16:33:05.897Z,21.83
2022-11-24T16:35:33.973Z,21.73
2022-11-24T16:38:01.252Z,20.50
2022-11-24T16:40:28.859Z,18.87
2022-11-24T16:42:58.200Z,24.35
2022-11-24T16:45:25.659Z,22.50
2022-11-24T16:47:53.135Z,18.38
2022-11-24T16:50:20.624Z,21.20
2022-11-24T16:52:47.946Z,22.67
2022-11-24T16:55:15.443Z,25.33
2022-11-24T16:57:42.789Z,23.33
2022-11-24T17:00:10.806Z,22.95
2022-11-24T17:02:38.331Z,21.77
2022-11-24T17:05:06.179Z,18.53
2022-11-24T17:07:33.569Z,21.52
2022-11-24T17:10:01.080Z,20.48
2022-11-24T17:12:28.423Z,22.98
2022-11-24T17:15:24.386Z,23.70
2022-11-24T17:18:01.600Z,24.07
2022-11-24T17:20:31.662Z,19.25
2022-11-24T17:22:59.197Z,22.92
2022-11-24T17:25:26.564Z,34.30
2022-11-24T17:27:54.243Z,26.35
2022-11-24T17:30:21.834Z,24.80
2022-11-24T17:32:53.671Z,23.75
2022-11-24T17:35:24.054Z,25.27
2022-11-24T17:37:51.325Z,27.23
2022-11-24T17:40:34.563Z,22.70
2022-11-24T17:43:02.208Z,23.00
2022-11-24T17:45:29.916Z,20.23
2022-11-24T17:47:59.025Z,22.42
2022-11-24T17:50:26.772Z,22.00
2022-11-24T17:52:54.336Z,23.10
2022-11-24T17:55:21.893Z,28.07
2022-11-24T17:57:49.623Z,28.13
2022-11-24T18:00:17.460Z,27.02
2022-11-24T18:02:44.970Z,24.65
2022-11-24T18:05:12.395Z,30.45
2022-11-24T18:07:39.886Z,27.37
2022-11-24T18:10:07.593Z,27.08
2022-11-24T18:12:35.157Z,25.50
2022-11-24T18:15:02.397Z,23.92
2022-11-24T18:17:29.773Z,28.33
2022-11-24T18:19:57.128Z,62.20
2022-11-24T18:22:50.161Z,27.55
2022-11-24T18:25:12.329Z,25.30
2022-11-24T18:27:39.885Z,22.65
2022-11-24T18:30:07.951Z,22.70
2022-11-24T18:32:35.578Z,22.47
2022-11-24T18:35:02.944Z,27.77
2022-11-24T18:37:33.846Z,23.73
2022-11-24T18:40:01.342Z,25.58
2022-11-24T18:42:29.312Z,26.02
2022-11-24T18:44:57.412Z,23.73
2022-11-24T18:47:24.725Z,25.40
2022-11-24T18:49:52.158Z,21.83
2022-11-24T18:52:19.425Z,23.67
2022-11-24T18:54:46.811Z,25.02
2022-11-24T18:57:14.063Z,23.97
2022-11-24T18:59:41.550Z,26.42
2022-11-24T19:02:09.970Z,27.55
2022-11-24T19:04:37.742Z,27.13
2022-11-24T19:07:05.388Z,25.40
2022-11-24T19:09:32.700Z,27.33
2022-11-24T19:12:00.181Z,25.52
2022-11-24T19:14:27.726Z,32.25
2022-11-24T19:16:55.296Z,28.02
2022-11-24T19:19:22.631Z,37.22
2022-11-24T19:21:50.006Z,33.23
2022-11-24T19:24:17.279Z,28.10
2022-11-24T19:26:44.549Z,29.77
2022-11-24T19:29:11.841Z,28.80
2022-11-24T19:31:43.941Z,31.83
2022-11-24T19:34:11.328Z,35.00
2022-11-24T19:36:40.550Z,31.88
2022-11-24T19:39:07.880Z,45.03
2022-11-24T19:41:35.253Z,46.05
2022-11-24T19:44:02.582Z,53.63
2022-11-24T19:46:30.217Z,56.90
2022-11-24T19:49:00.303Z,58.47
2022-11-24T19:51:35.453Z,56.58
2022-11-24T19:54:03.292Z,52.75
2022-11-24T19:56:32.204Z,53.50
2022-11-24T19:58:59.584Z,51.30
2022-11-24T20:01:30.103Z,52.40
2022-11-24T20:04:01.763Z,49.53
2022-11-24T20:06:34.045Z,55.08
2022-11-24T20:09:01.615Z,57.15
2022-11-24T20:11:29.075Z,57.60
2022-11-24T20:13:56.559Z,55.38
2022-11-24T20:16:29.702Z,51.67
2022-11-24T20:19:01.383Z,45.45
2022-11-24T20:21:31.280Z,39.22
2022-11-24T20:24:03.030Z,37.23
2022-11-24T20:26:32.278Z,42.25
2022-11-24T20:28:59.844Z,42.03
2022-11-24T20:31:31.843Z,43.15
2022-11-24T20:33:59.907Z,43.03
2022-11-24T20:36:28.202Z,41.77
2022-11-24T20:38:55.779Z,37.53
2022-11-24T20:41:25.122Z,34.53
2022-11-24T20:43:53.276Z,27.45
2022-11-24T20:46:22.299Z,27.73
2022-11-24T20:48:49.616Z,22.07
2022-11-24T20:51:18.922Z,42.05
2022-11-24T20:53:46.235Z,44.33
2022-11-24T20:56:24.027Z,52.70
2022-11-24T20:58:51.471Z,45.55
2022-11-24T21:01:20.947Z,44.83
2022-11-24T21:03:52.583Z,38.35
2022-11-24T21:06:19.950Z,38.10
2022-11-24T21:08:47.293Z,36.33
2022-11-24T21:11:14.814Z,29.90
2022-11-24T21:13:43.969Z,32.87
2022-11-24T21:16:15.556Z,29.33
2022-11-24T21:18:43.600Z,29.85
2022-11-24T21:21:11.025Z,25.50
2022-11-24T21:23:38.259Z,29.70
2022-11-24T21:26:11.493Z,23.73
2022-11-24T21:28:42.985Z,28.65
2022-11-24T21:31:15.328Z,29.58
2022-11-24T21:33:47.225Z,24.95
2022-11-24T21:36:15.915Z,22.75
2022-11-24T21:38:43.228Z,23.23
2022-11-24T21:41:11.130Z,21.80
2022-11-24T21:43:38.757Z,26.33
2022-11-24T21:46:06.786Z,27.10
2022-11-24T21:48:34.559Z,21.48
2022-11-24T21:51:02.865Z,23.90
2022-11-24T21:53:31.019Z,27.00
2022-11-24T21:55:59.196Z,22.45
2022-11-24T21:58:26.846Z,22.05
2022-11-24T22:00:54.806Z,20.70
2022-11-24T22:03:22.220Z,19.77
2022-11-24T22:05:56.567Z,18.05
2022-11-24T22:08:24.485Z,20.95
2022-11-24T22:10:52.021Z,18.25
2022-11-24T22:13:19.536Z,20.52
2022-11-24T22:15:46.812Z,17.23
2022-11-24T22:18:14.172Z,17.95
2022-11-24T22:20:41.496Z,19.65
2022-11-24T22:23:09.164Z,20.17
2022-11-24T22:25:36.405Z,19.98
2022-11-24T22:28:03.730Z,20.73
2022-11-24T22:30:30.998Z,18.60
2022-11-24T22:32:58.274Z,23.75
2022-11-24T22:35:25.514Z,22.50
2022-11-24T22:37:53.223Z,28.35
2022-11-24T22:40:20.422Z,21.13
2022-11-24T22:42:47.802Z,20.02
2022-11-24T22:45:15.108Z,20.27
2022-11-24T22:47:42.409Z,20.67
2022-11-24T22:50:10.005Z,22.17
2022-11-24T22:52:38.805Z,22.93
2022-11-24T22:55:06.388Z,19.95
2022-11-24T22:57:33.751Z,20.00
2022-11-24T23:00:01.032Z,17.92
2022-11-24T23:02:28.361Z,20.83
2022-11-24T23:04:55.640Z,20.77
2022-11-24T23:07:23.057Z,17.88
2022-11-24T23:09:50.286Z,17.80
2022-11-24T23:12:18.527Z,17.90
2022-11-24T23:14:45.748Z,17.67
2022-11-24T23:17:13.089Z,18.10
2022-11-24T23:19:40.283Z,16.67
2022-11-24T23:22:07.595Z,16.75
2022-11-24T23:24:38.260Z,19.08
2022-11-24T23:27:05.643Z,15.88
2022-11-24T23:29:32.938Z,17.83
2022-11-24T23:32:00.263Z,18.65
2022-11-24T23:34:27.589Z,21.70
2022-11-24T23:36:54.988Z,16.50
2022-11-24T23:39:22.172Z,16.23
2022-11-24T23:41:49.450Z,16.40
2022-11-24T23:44:16.993Z,17.20
2022-11-24T23:46:44.379Z,19.23
2022-11-24T23:49:11.766Z,17.75
2022-11-24T23:51:42.185Z,17.60
2022-11-24T23:54:12.361Z,17.63
2022-11-24T23:56:39.700Z,18.15
2022-11-24T23:59:06.947Z,16.95
